<?xml version="1.0" encoding="UTF-8" standalone="no" ?>
<gpx xmlns="http://www.topografix.com/GPX/1/1" xmlns:xsi="http://www.w3.org/2001/XMLSchema-instance" xsi:schemaLocation="http://www.topografix.com/GPX/1/1 http://www.topografix.com/GPX/1/1/gpx.xsd" version="1.1" creator="VisuGPX - https://www.visugpx.com">
  <metadata>
    <name>rando Cleden Cap Sizun 13 avril 2012</name>
    <desc><![CDATA[rando départ chapelle Langroas
vendredi 13 avril 2012
petite boucle]]></desc>
  </metadata>
  <trk>
    <name><![CDATA[2012-04-13 14:00]]></name>
    <desc><![CDATA[<h1>OruxMaps</h1><br /><hr align="center" width="480" style="height: 2px; width: 517px"/><h2>Nom: 2012-04-13 14:00</h2><br /><p>Temps de départ: 04/13/2012 14:01</p><p>Temps d'arrivée: 04/13/2012 16:13</p><p>Distance: 8,8 km (02:12)</p><p>Temps déplacement: 01:58</p><p>Vitesse moyenne: 4 km/h</p><p>Vitesse moyenne: 4,4 km/h</p><p>Vitess Max.: 5,9 km/h</p><p>Altitude minimale: 61 m</p><p>Altitude maximale: 110 m</p><p>Vitesse d'élévation: 164,8 m/h</p><p>Vitesse de descente: -140,4 m/h</p><p>Gain Altitude: 117 m</p><p>Perte Altitude: -116 m</p><p>Temps d'élévation: 00:42</p><p>Temps de descente: 00:49</p><hr align="center" width="480" style="height: 2px; width: 517px"/>]]></desc>
    <trkseg>
      <trkpt lat="48.04774" lon="-4.61732">
        <ele>73.29999</ele>
        <time>2012-04-13T12:01:03Z</time>
      </trkpt>
      <trkpt lat="48.04756" lon="-4.61731">
        <ele>76.341385</ele>
        <time>2012-04-13T12:04:07Z</time>
      </trkpt>
      <trkpt lat="48.04745" lon="-4.61709">
        <ele>76.7556</ele>
        <time>2012-04-13T12:04:25Z</time>
      </trkpt>
      <trkpt lat="48.04735" lon="-4.61687">
        <ele>78.85235</ele>
        <time>2012-04-13T12:04:41Z</time>
      </trkpt>
      <trkpt lat="48.04721" lon="-4.61669">
        <ele>79.791756</ele>
        <time>2012-04-13T12:04:57Z</time>
      </trkpt>
      <trkpt lat="48.04707" lon="-4.6165">
        <ele>80.62871</ele>
        <time>2012-04-13T12:05:14Z</time>
      </trkpt>
      <trkpt lat="48.04692" lon="-4.61633">
        <ele>80.70699</ele>
        <time>2012-04-13T12:05:30Z</time>
      </trkpt>
      <trkpt lat="48.04677" lon="-4.61617">
        <ele>80.900955</ele>
        <time>2012-04-13T12:05:46Z</time>
      </trkpt>
      <trkpt lat="48.04664" lon="-4.61597">
        <ele>81.7049</ele>
        <time>2012-04-13T12:06:03Z</time>
      </trkpt>
      <trkpt lat="48.04652" lon="-4.61577">
        <ele>82.76807</ele>
        <time>2012-04-13T12:06:18Z</time>
      </trkpt>
      <trkpt lat="48.04639" lon="-4.61556">
        <ele>82.74291</ele>
        <time>2012-04-13T12:06:32Z</time>
      </trkpt>
      <trkpt lat="48.04626" lon="-4.61535">
        <ele>82.21209</ele>
        <time>2012-04-13T12:06:48Z</time>
      </trkpt>
      <trkpt lat="48.04616" lon="-4.61512">
        <ele>83.41261</ele>
        <time>2012-04-13T12:07:04Z</time>
      </trkpt>
      <trkpt lat="48.04605" lon="-4.6149">
        <ele>85.92594</ele>
        <time>2012-04-13T12:07:22Z</time>
      </trkpt>
      <trkpt lat="48.04592" lon="-4.61469">
        <ele>86.1212</ele>
        <time>2012-04-13T12:07:38Z</time>
      </trkpt>
      <trkpt lat="48.04579" lon="-4.61449">
        <ele>86.91071</ele>
        <time>2012-04-13T12:07:54Z</time>
      </trkpt>
      <trkpt lat="48.04568" lon="-4.61427">
        <ele>87.4458</ele>
        <time>2012-04-13T12:08:12Z</time>
      </trkpt>
      <trkpt lat="48.04556" lon="-4.61405">
        <ele>88.058304</ele>
        <time>2012-04-13T12:08:30Z</time>
      </trkpt>
      <trkpt lat="48.04538" lon="-4.614">
        <ele>88.200775</ele>
        <time>2012-04-13T12:08:48Z</time>
      </trkpt>
      <trkpt lat="48.04526" lon="-4.61421">
        <ele>89.07553</ele>
        <time>2012-04-13T12:09:08Z</time>
      </trkpt>
      <trkpt lat="48.04512" lon="-4.61437">
        <ele>89.54919</ele>
        <time>2012-04-13T12:09:24Z</time>
      </trkpt>
      <trkpt lat="48.04505" lon="-4.61462">
        <ele>89.11834</ele>
        <time>2012-04-13T12:09:37Z</time>
      </trkpt>
      <trkpt lat="48.04512" lon="-4.61488">
        <ele>89.45377</ele>
        <time>2012-04-13T12:09:54Z</time>
      </trkpt>
      <trkpt lat="48.04517" lon="-4.61515">
        <ele>87.7099</ele>
        <time>2012-04-13T12:10:13Z</time>
      </trkpt>
      <trkpt lat="48.04507" lon="-4.61539">
        <ele>85.65521</ele>
        <time>2012-04-13T12:10:29Z</time>
      </trkpt>
      <trkpt lat="48.04505" lon="-4.61566">
        <ele>85.30805</ele>
        <time>2012-04-13T12:10:46Z</time>
      </trkpt>
      <trkpt lat="48.04504" lon="-4.61594">
        <ele>84.96831</ele>
        <time>2012-04-13T12:11:03Z</time>
      </trkpt>
      <trkpt lat="48.04502" lon="-4.61622">
        <ele>84.712425</ele>
        <time>2012-04-13T12:11:18Z</time>
      </trkpt>
      <trkpt lat="48.04499" lon="-4.61648">
        <ele>85.38743</ele>
        <time>2012-04-13T12:11:33Z</time>
      </trkpt>
      <trkpt lat="48.04495" lon="-4.61675">
        <ele>84.62034</ele>
        <time>2012-04-13T12:11:49Z</time>
      </trkpt>
      <trkpt lat="48.04487" lon="-4.617">
        <ele>84.140045</ele>
        <time>2012-04-13T12:12:07Z</time>
      </trkpt>
      <trkpt lat="48.04478" lon="-4.61725">
        <ele>84.685</ele>
        <time>2012-04-13T12:12:26Z</time>
      </trkpt>
      <trkpt lat="48.0447" lon="-4.6175">
        <ele>83.113</ele>
        <time>2012-04-13T12:12:42Z</time>
      </trkpt>
      <trkpt lat="48.04457" lon="-4.6177">
        <ele>82.016235</ele>
        <time>2012-04-13T12:12:57Z</time>
      </trkpt>
      <trkpt lat="48.04444" lon="-4.61789">
        <ele>82.83335</ele>
        <time>2012-04-13T12:13:18Z</time>
      </trkpt>
      <trkpt lat="48.04431" lon="-4.61811">
        <ele>81.50557</ele>
        <time>2012-04-13T12:13:38Z</time>
      </trkpt>
      <trkpt lat="48.04417" lon="-4.6183">
        <ele>82.55683</ele>
        <time>2012-04-13T12:13:50Z</time>
      </trkpt>
      <trkpt lat="48.04404" lon="-4.61849">
        <ele>84.41217</ele>
        <time>2012-04-13T12:14:03Z</time>
      </trkpt>
      <trkpt lat="48.0439" lon="-4.61869">
        <ele>86.07018</ele>
        <time>2012-04-13T12:14:18Z</time>
      </trkpt>
      <trkpt lat="48.04378" lon="-4.61889">
        <ele>87.74565</ele>
        <time>2012-04-13T12:14:33Z</time>
      </trkpt>
      <trkpt lat="48.04365" lon="-4.6191">
        <ele>87.89503</ele>
        <time>2012-04-13T12:14:46Z</time>
      </trkpt>
      <trkpt lat="48.04354" lon="-4.61933">
        <ele>86.06647</ele>
        <time>2012-04-13T12:15:03Z</time>
      </trkpt>
      <trkpt lat="48.04342" lon="-4.61955">
        <ele>81.75901</ele>
        <time>2012-04-13T12:15:19Z</time>
      </trkpt>
      <trkpt lat="48.04329" lon="-4.61974">
        <ele>80.7249</ele>
        <time>2012-04-13T12:15:38Z</time>
      </trkpt>
      <trkpt lat="48.04314" lon="-4.6199">
        <ele>77.88059</ele>
        <time>2012-04-13T12:15:51Z</time>
      </trkpt>
      <trkpt lat="48.04298" lon="-4.62005">
        <ele>77.612366</ele>
        <time>2012-04-13T12:16:05Z</time>
      </trkpt>
      <trkpt lat="48.04284" lon="-4.62022">
        <ele>78.34751</ele>
        <time>2012-04-13T12:16:21Z</time>
      </trkpt>
      <trkpt lat="48.04268" lon="-4.62037">
        <ele>76.160934</ele>
        <time>2012-04-13T12:16:35Z</time>
      </trkpt>
      <trkpt lat="48.0425" lon="-4.62047">
        <ele>76.19205</ele>
        <time>2012-04-13T12:16:56Z</time>
      </trkpt>
      <trkpt lat="48.04232" lon="-4.62057">
        <ele>76.3474</ele>
        <time>2012-04-13T12:17:08Z</time>
      </trkpt>
      <trkpt lat="48.04215" lon="-4.62067">
        <ele>75.435234</ele>
        <time>2012-04-13T12:17:24Z</time>
      </trkpt>
      <trkpt lat="48.04197" lon="-4.62073">
        <ele>74.17571</ele>
        <time>2012-04-13T12:17:42Z</time>
      </trkpt>
      <trkpt lat="48.04181" lon="-4.62085">
        <ele>71.88846</ele>
        <time>2012-04-13T12:17:57Z</time>
      </trkpt>
      <trkpt lat="48.04165" lon="-4.62098">
        <ele>71.0674</ele>
        <time>2012-04-13T12:18:11Z</time>
      </trkpt>
      <trkpt lat="48.04147" lon="-4.62107">
        <ele>72.9106</ele>
        <time>2012-04-13T12:18:31Z</time>
      </trkpt>
      <trkpt lat="48.04129" lon="-4.62118">
        <ele>74.36767</ele>
        <time>2012-04-13T12:18:45Z</time>
      </trkpt>
      <trkpt lat="48.04111" lon="-4.62124">
        <ele>74.96407</ele>
        <time>2012-04-13T12:19:03Z</time>
      </trkpt>
      <trkpt lat="48.04093" lon="-4.62121">
        <ele>73.265</ele>
        <time>2012-04-13T12:19:20Z</time>
      </trkpt>
      <trkpt lat="48.04074" lon="-4.62115">
        <ele>72.9401</ele>
        <time>2012-04-13T12:19:36Z</time>
      </trkpt>
      <trkpt lat="48.04056" lon="-4.62113">
        <ele>73.93478</ele>
        <time>2012-04-13T12:19:52Z</time>
      </trkpt>
      <trkpt lat="48.04039" lon="-4.62125">
        <ele>74.280876</ele>
        <time>2012-04-13T12:20:11Z</time>
      </trkpt>
      <trkpt lat="48.04021" lon="-4.62117">
        <ele>72.90159</ele>
        <time>2012-04-13T12:20:28Z</time>
      </trkpt>
      <trkpt lat="48.04009" lon="-4.62096">
        <ele>70.046425</ele>
        <time>2012-04-13T12:20:48Z</time>
      </trkpt>
      <trkpt lat="48.04001" lon="-4.62071">
        <ele>68.75167</ele>
        <time>2012-04-13T12:21:04Z</time>
      </trkpt>
      <trkpt lat="48.03995" lon="-4.62044">
        <ele>69.802216</ele>
        <time>2012-04-13T12:21:19Z</time>
      </trkpt>
      <trkpt lat="48.0399" lon="-4.62018">
        <ele>70.01235</ele>
        <time>2012-04-13T12:21:33Z</time>
      </trkpt>
      <trkpt lat="48.03986" lon="-4.6199">
        <ele>69.4733</ele>
        <time>2012-04-13T12:21:51Z</time>
      </trkpt>
      <trkpt lat="48.03983" lon="-4.61962">
        <ele>69.946106</ele>
        <time>2012-04-13T12:22:06Z</time>
      </trkpt>
      <trkpt lat="48.03982" lon="-4.61935">
        <ele>68.61782</ele>
        <time>2012-04-13T12:22:22Z</time>
      </trkpt>
      <trkpt lat="48.03978" lon="-4.61908">
        <ele>69.62969</ele>
        <time>2012-04-13T12:22:36Z</time>
      </trkpt>
      <trkpt lat="48.03976" lon="-4.6188">
        <ele>69.45808</ele>
        <time>2012-04-13T12:22:52Z</time>
      </trkpt>
      <trkpt lat="48.03971" lon="-4.61853">
        <ele>70.154564</ele>
        <time>2012-04-13T12:23:08Z</time>
      </trkpt>
      <trkpt lat="48.03968" lon="-4.61826">
        <ele>70.11623</ele>
        <time>2012-04-13T12:23:25Z</time>
      </trkpt>
      <trkpt lat="48.03964" lon="-4.61799">
        <ele>70.27132</ele>
        <time>2012-04-13T12:23:40Z</time>
      </trkpt>
      <trkpt lat="48.03963" lon="-4.61772">
        <ele>72.2742</ele>
        <time>2012-04-13T12:23:54Z</time>
      </trkpt>
      <trkpt lat="48.03962" lon="-4.61744">
        <ele>72.65237</ele>
        <time>2012-04-13T12:24:09Z</time>
      </trkpt>
      <trkpt lat="48.03958" lon="-4.61716">
        <ele>72.421616</ele>
        <time>2012-04-13T12:24:25Z</time>
      </trkpt>
      <trkpt lat="48.03952" lon="-4.61688">
        <ele>72.10349</ele>
        <time>2012-04-13T12:24:40Z</time>
      </trkpt>
      <trkpt lat="48.03945" lon="-4.61662">
        <ele>71.171715</ele>
        <time>2012-04-13T12:24:54Z</time>
      </trkpt>
      <trkpt lat="48.03937" lon="-4.61638">
        <ele>70.258804</ele>
        <time>2012-04-13T12:25:10Z</time>
      </trkpt>
      <trkpt lat="48.03931" lon="-4.6161">
        <ele>70.15149</ele>
        <time>2012-04-13T12:25:26Z</time>
      </trkpt>
      <trkpt lat="48.03927" lon="-4.61583">
        <ele>70.229744</ele>
        <time>2012-04-13T12:25:41Z</time>
      </trkpt>
      <trkpt lat="48.03923" lon="-4.61557">
        <ele>70.55143</ele>
        <time>2012-04-13T12:25:54Z</time>
      </trkpt>
      <trkpt lat="48.03926" lon="-4.61529">
        <ele>71.67635</ele>
        <time>2012-04-13T12:26:11Z</time>
      </trkpt>
      <trkpt lat="48.03939" lon="-4.6151">
        <ele>71.52486</ele>
        <time>2012-04-13T12:26:28Z</time>
      </trkpt>
      <trkpt lat="48.03954" lon="-4.61495">
        <ele>73.044174</ele>
        <time>2012-04-13T12:26:46Z</time>
      </trkpt>
      <trkpt lat="48.03969" lon="-4.61479">
        <ele>72.1083</ele>
        <time>2012-04-13T12:27:02Z</time>
      </trkpt>
      <trkpt lat="48.0397" lon="-4.61451">
        <ele>73.13272</ele>
        <time>2012-04-13T12:27:18Z</time>
      </trkpt>
      <trkpt lat="48.03952" lon="-4.61443">
        <ele>71.690315</ele>
        <time>2012-04-13T12:27:35Z</time>
      </trkpt>
      <trkpt lat="48.03934" lon="-4.61454">
        <ele>70.445595</ele>
        <time>2012-04-13T12:27:49Z</time>
      </trkpt>
      <trkpt lat="48.03916" lon="-4.61457">
        <ele>71.625755</ele>
        <time>2012-04-13T12:28:03Z</time>
      </trkpt>
      <trkpt lat="48.03905" lon="-4.61435">
        <ele>72.14434</ele>
        <time>2012-04-13T12:28:20Z</time>
      </trkpt>
      <trkpt lat="48.03902" lon="-4.61407">
        <ele>70.80046</ele>
        <time>2012-04-13T12:28:37Z</time>
      </trkpt>
      <trkpt lat="48.03899" lon="-4.61381">
        <ele>70.64054</ele>
        <time>2012-04-13T12:28:51Z</time>
      </trkpt>
      <trkpt lat="48.03894" lon="-4.61354">
        <ele>71.165184</ele>
        <time>2012-04-13T12:29:08Z</time>
      </trkpt>
      <trkpt lat="48.03889" lon="-4.61327">
        <ele>73.246925</ele>
        <time>2012-04-13T12:29:22Z</time>
      </trkpt>
      <trkpt lat="48.03885" lon="-4.613">
        <ele>74.41258</ele>
        <time>2012-04-13T12:29:36Z</time>
      </trkpt>
      <trkpt lat="48.03881" lon="-4.61274">
        <ele>74.93666</ele>
        <time>2012-04-13T12:29:50Z</time>
      </trkpt>
      <trkpt lat="48.03878" lon="-4.61247">
        <ele>73.966835</ele>
        <time>2012-04-13T12:30:05Z</time>
      </trkpt>
      <trkpt lat="48.03877" lon="-4.61219">
        <ele>73.548134</ele>
        <time>2012-04-13T12:30:21Z</time>
      </trkpt>
      <trkpt lat="48.03873" lon="-4.6119">
        <ele>74.48949</ele>
        <time>2012-04-13T12:30:38Z</time>
      </trkpt>
      <trkpt lat="48.0387" lon="-4.61164">
        <ele>74.552185</ele>
        <time>2012-04-13T12:30:53Z</time>
      </trkpt>
      <trkpt lat="48.03868" lon="-4.61136">
        <ele>74.92812</ele>
        <time>2012-04-13T12:31:09Z</time>
      </trkpt>
      <trkpt lat="48.03866" lon="-4.61109">
        <ele>74.82789</ele>
        <time>2012-04-13T12:31:26Z</time>
      </trkpt>
      <trkpt lat="48.03863" lon="-4.61081">
        <ele>71.92857</ele>
        <time>2012-04-13T12:31:46Z</time>
      </trkpt>
      <trkpt lat="48.0386" lon="-4.61053">
        <ele>71.85799</ele>
        <time>2012-04-13T12:32:04Z</time>
      </trkpt>
      <trkpt lat="48.03859" lon="-4.61027">
        <ele>71.86129</ele>
        <time>2012-04-13T12:32:21Z</time>
      </trkpt>
      <trkpt lat="48.03857" lon="-4.61">
        <ele>70.59335</ele>
        <time>2012-04-13T12:32:39Z</time>
      </trkpt>
      <trkpt lat="48.0385" lon="-4.60974">
        <ele>69.97078</ele>
        <time>2012-04-13T12:32:56Z</time>
      </trkpt>
      <trkpt lat="48.03847" lon="-4.60946">
        <ele>70.84627</ele>
        <time>2012-04-13T12:33:12Z</time>
      </trkpt>
      <trkpt lat="48.03844" lon="-4.6092">
        <ele>70.05528</ele>
        <time>2012-04-13T12:33:29Z</time>
      </trkpt>
      <trkpt lat="48.03841" lon="-4.60891">
        <ele>70.68006</ele>
        <time>2012-04-13T12:33:46Z</time>
      </trkpt>
      <trkpt lat="48.0384" lon="-4.60864">
        <ele>72.43442</ele>
        <time>2012-04-13T12:34:05Z</time>
      </trkpt>
      <trkpt lat="48.03847" lon="-4.60839">
        <ele>70.85565</ele>
        <time>2012-04-13T12:34:19Z</time>
      </trkpt>
      <trkpt lat="48.03846" lon="-4.60812">
        <ele>72.18661</ele>
        <time>2012-04-13T12:34:36Z</time>
      </trkpt>
      <trkpt lat="48.03849" lon="-4.60785">
        <ele>73.749985</ele>
        <time>2012-04-13T12:34:51Z</time>
      </trkpt>
      <trkpt lat="48.0385" lon="-4.60757">
        <ele>75.672745</ele>
        <time>2012-04-13T12:35:07Z</time>
      </trkpt>
      <trkpt lat="48.03853" lon="-4.6073">
        <ele>77.94758</ele>
        <time>2012-04-13T12:35:25Z</time>
      </trkpt>
      <trkpt lat="48.03847" lon="-4.60703">
        <ele>77.65248</ele>
        <time>2012-04-13T12:35:41Z</time>
      </trkpt>
      <trkpt lat="48.03849" lon="-4.60675">
        <ele>78.09814</ele>
        <time>2012-04-13T12:35:59Z</time>
      </trkpt>
      <trkpt lat="48.03848" lon="-4.60647">
        <ele>78.87945</ele>
        <time>2012-04-13T12:36:15Z</time>
      </trkpt>
      <trkpt lat="48.03848" lon="-4.60619">
        <ele>77.78034</ele>
        <time>2012-04-13T12:36:31Z</time>
      </trkpt>
      <trkpt lat="48.03843" lon="-4.60592">
        <ele>78.04696</ele>
        <time>2012-04-13T12:36:50Z</time>
      </trkpt>
      <trkpt lat="48.03835" lon="-4.60567">
        <ele>76.51601</ele>
        <time>2012-04-13T12:37:09Z</time>
      </trkpt>
      <trkpt lat="48.03826" lon="-4.60543">
        <ele>75.01188</ele>
        <time>2012-04-13T12:37:23Z</time>
      </trkpt>
      <trkpt lat="48.03809" lon="-4.6053">
        <ele>73.97682</ele>
        <time>2012-04-13T12:37:42Z</time>
      </trkpt>
      <trkpt lat="48.0379" lon="-4.60528">
        <ele>74.575</ele>
        <time>2012-04-13T12:38:42Z</time>
      </trkpt>
      <trkpt lat="48.03772" lon="-4.60536">
        <ele>74.388374</ele>
        <time>2012-04-13T12:39:26Z</time>
      </trkpt>
      <trkpt lat="48.03755" lon="-4.60525">
        <ele>74.99956</ele>
        <time>2012-04-13T12:39:45Z</time>
      </trkpt>
      <trkpt lat="48.03742" lon="-4.60506">
        <ele>75.16217</ele>
        <time>2012-04-13T12:40:09Z</time>
      </trkpt>
      <trkpt lat="48.03727" lon="-4.60489">
        <ele>76.413605</ele>
        <time>2012-04-13T12:40:28Z</time>
      </trkpt>
      <trkpt lat="48.03713" lon="-4.60471">
        <ele>77.22181</ele>
        <time>2012-04-13T12:40:50Z</time>
      </trkpt>
      <trkpt lat="48.03701" lon="-4.60451">
        <ele>76.923454</ele>
        <time>2012-04-13T12:41:18Z</time>
      </trkpt>
      <trkpt lat="48.03685" lon="-4.60466">
        <ele>82.0396</ele>
        <time>2012-04-13T12:42:34Z</time>
      </trkpt>
      <trkpt lat="48.0368" lon="-4.60492">
        <ele>82.07661</ele>
        <time>2012-04-13T12:42:58Z</time>
      </trkpt>
      <trkpt lat="48.03679" lon="-4.60521">
        <ele>85.16543</ele>
        <time>2012-04-13T12:43:15Z</time>
      </trkpt>
      <trkpt lat="48.03677" lon="-4.60548">
        <ele>84.408966</ele>
        <time>2012-04-13T12:43:30Z</time>
      </trkpt>
      <trkpt lat="48.03662" lon="-4.60565">
        <ele>84.863106</ele>
        <time>2012-04-13T12:43:52Z</time>
      </trkpt>
      <trkpt lat="48.03648" lon="-4.60584">
        <ele>89.23313</ele>
        <time>2012-04-13T12:44:13Z</time>
      </trkpt>
      <trkpt lat="48.03645" lon="-4.60611">
        <ele>91.61401</ele>
        <time>2012-04-13T12:44:30Z</time>
      </trkpt>
      <trkpt lat="48.03643" lon="-4.60639">
        <ele>91.36524</ele>
        <time>2012-04-13T12:44:46Z</time>
      </trkpt>
      <trkpt lat="48.03639" lon="-4.60665">
        <ele>90.38255</ele>
        <time>2012-04-13T12:45:00Z</time>
      </trkpt>
      <trkpt lat="48.03637" lon="-4.60693">
        <ele>89.53564</ele>
        <time>2012-04-13T12:45:19Z</time>
      </trkpt>
      <trkpt lat="48.03636" lon="-4.6072">
        <ele>89.97761</ele>
        <time>2012-04-13T12:45:37Z</time>
      </trkpt>
      <trkpt lat="48.03636" lon="-4.60747">
        <ele>89.75801</ele>
        <time>2012-04-13T12:45:53Z</time>
      </trkpt>
      <trkpt lat="48.03637" lon="-4.60775">
        <ele>90.312965</ele>
        <time>2012-04-13T12:46:10Z</time>
      </trkpt>
      <trkpt lat="48.03632" lon="-4.60801">
        <ele>93.0912</ele>
        <time>2012-04-13T12:46:23Z</time>
      </trkpt>
      <trkpt lat="48.03627" lon="-4.6083">
        <ele>92.70184</ele>
        <time>2012-04-13T12:46:43Z</time>
      </trkpt>
      <trkpt lat="48.03627" lon="-4.60858">
        <ele>91.73483</ele>
        <time>2012-04-13T12:47:00Z</time>
      </trkpt>
      <trkpt lat="48.03631" lon="-4.60885">
        <ele>91.91654</ele>
        <time>2012-04-13T12:47:14Z</time>
      </trkpt>
      <trkpt lat="48.03637" lon="-4.60911">
        <ele>92.00995</ele>
        <time>2012-04-13T12:47:28Z</time>
      </trkpt>
      <trkpt lat="48.03638" lon="-4.60938">
        <ele>92.33028</ele>
        <time>2012-04-13T12:47:42Z</time>
      </trkpt>
      <trkpt lat="48.03636" lon="-4.60967">
        <ele>92.07915</ele>
        <time>2012-04-13T12:47:58Z</time>
      </trkpt>
      <trkpt lat="48.03633" lon="-4.60994">
        <ele>90.26511</ele>
        <time>2012-04-13T12:48:11Z</time>
      </trkpt>
      <trkpt lat="48.03627" lon="-4.61021">
        <ele>89.524376</ele>
        <time>2012-04-13T12:48:26Z</time>
      </trkpt>
      <trkpt lat="48.03631" lon="-4.61049">
        <ele>87.93558</ele>
        <time>2012-04-13T12:48:40Z</time>
      </trkpt>
      <trkpt lat="48.03633" lon="-4.61076">
        <ele>92.818825</ele>
        <time>2012-04-13T12:48:56Z</time>
      </trkpt>
      <trkpt lat="48.03633" lon="-4.61104">
        <ele>96.38757</ele>
        <time>2012-04-13T12:49:11Z</time>
      </trkpt>
      <trkpt lat="48.03636" lon="-4.6113">
        <ele>97.534096</ele>
        <time>2012-04-13T12:49:27Z</time>
      </trkpt>
      <trkpt lat="48.03635" lon="-4.61157">
        <ele>97.734566</ele>
        <time>2012-04-13T12:49:42Z</time>
      </trkpt>
      <trkpt lat="48.03641" lon="-4.61183">
        <ele>97.990875</ele>
        <time>2012-04-13T12:50:04Z</time>
      </trkpt>
      <trkpt lat="48.03642" lon="-4.61211">
        <ele>98.94308</ele>
        <time>2012-04-13T12:50:28Z</time>
      </trkpt>
      <trkpt lat="48.03646" lon="-4.61237">
        <ele>97.770996</ele>
        <time>2012-04-13T12:50:47Z</time>
      </trkpt>
      <trkpt lat="48.03652" lon="-4.61263">
        <ele>96.85821</ele>
        <time>2012-04-13T12:51:07Z</time>
      </trkpt>
      <trkpt lat="48.0366" lon="-4.61287">
        <ele>98.60732</ele>
        <time>2012-04-13T12:51:26Z</time>
      </trkpt>
      <trkpt lat="48.03667" lon="-4.61313">
        <ele>97.25159</ele>
        <time>2012-04-13T12:51:46Z</time>
      </trkpt>
      <trkpt lat="48.03676" lon="-4.61337">
        <ele>94.68972</ele>
        <time>2012-04-13T12:52:01Z</time>
      </trkpt>
      <trkpt lat="48.03686" lon="-4.61359">
        <ele>93.274956</ele>
        <time>2012-04-13T12:52:16Z</time>
      </trkpt>
      <trkpt lat="48.03694" lon="-4.61384">
        <ele>94.03496</ele>
        <time>2012-04-13T12:52:32Z</time>
      </trkpt>
      <trkpt lat="48.03699" lon="-4.6141">
        <ele>94.42104</ele>
        <time>2012-04-13T12:52:48Z</time>
      </trkpt>
      <trkpt lat="48.03705" lon="-4.61437">
        <ele>92.57772</ele>
        <time>2012-04-13T12:53:02Z</time>
      </trkpt>
      <trkpt lat="48.03711" lon="-4.61464">
        <ele>89.42657</ele>
        <time>2012-04-13T12:53:17Z</time>
      </trkpt>
      <trkpt lat="48.03719" lon="-4.6149">
        <ele>84.112206</ele>
        <time>2012-04-13T12:53:30Z</time>
      </trkpt>
      <trkpt lat="48.03725" lon="-4.61516">
        <ele>80.81787</ele>
        <time>2012-04-13T12:53:46Z</time>
      </trkpt>
      <trkpt lat="48.03733" lon="-4.61542">
        <ele>83.696846</ele>
        <time>2012-04-13T12:54:03Z</time>
      </trkpt>
      <trkpt lat="48.03739" lon="-4.61569">
        <ele>85.92957</ele>
        <time>2012-04-13T12:54:18Z</time>
      </trkpt>
      <trkpt lat="48.03743" lon="-4.61598">
        <ele>86.3813</ele>
        <time>2012-04-13T12:54:33Z</time>
      </trkpt>
      <trkpt lat="48.03747" lon="-4.61625">
        <ele>78.90941</ele>
        <time>2012-04-13T12:54:47Z</time>
      </trkpt>
      <trkpt lat="48.03749" lon="-4.61652">
        <ele>76.9793</ele>
        <time>2012-04-13T12:55:03Z</time>
      </trkpt>
      <trkpt lat="48.03754" lon="-4.6168">
        <ele>77.03993</ele>
        <time>2012-04-13T12:55:20Z</time>
      </trkpt>
      <trkpt lat="48.03757" lon="-4.61706">
        <ele>80.09222</ele>
        <time>2012-04-13T12:55:37Z</time>
      </trkpt>
      <trkpt lat="48.03759" lon="-4.61733">
        <ele>81.77632</ele>
        <time>2012-04-13T12:55:54Z</time>
      </trkpt>
      <trkpt lat="48.03764" lon="-4.61761">
        <ele>81.84565</ele>
        <time>2012-04-13T12:56:10Z</time>
      </trkpt>
      <trkpt lat="48.03765" lon="-4.61789">
        <ele>84.349625</ele>
        <time>2012-04-13T12:56:27Z</time>
      </trkpt>
      <trkpt lat="48.03769" lon="-4.61817">
        <ele>86.660194</ele>
        <time>2012-04-13T12:56:47Z</time>
      </trkpt>
      <trkpt lat="48.03772" lon="-4.61844">
        <ele>83.65464</ele>
        <time>2012-04-13T12:57:01Z</time>
      </trkpt>
      <trkpt lat="48.03776" lon="-4.61872">
        <ele>85.14709</ele>
        <time>2012-04-13T12:57:18Z</time>
      </trkpt>
      <trkpt lat="48.03779" lon="-4.61901">
        <ele>85.21386</ele>
        <time>2012-04-13T12:57:33Z</time>
      </trkpt>
      <trkpt lat="48.03791" lon="-4.61922">
        <ele>85.70514</ele>
        <time>2012-04-13T12:57:51Z</time>
      </trkpt>
      <trkpt lat="48.03806" lon="-4.61937">
        <ele>84.342705</ele>
        <time>2012-04-13T12:58:13Z</time>
      </trkpt>
      <trkpt lat="48.03811" lon="-4.61964">
        <ele>83.04993</ele>
        <time>2012-04-13T12:58:31Z</time>
      </trkpt>
      <trkpt lat="48.0381" lon="-4.61992">
        <ele>83.35272</ele>
        <time>2012-04-13T12:58:48Z</time>
      </trkpt>
      <trkpt lat="48.0381" lon="-4.62019">
        <ele>85.93156</ele>
        <time>2012-04-13T12:59:02Z</time>
      </trkpt>
      <trkpt lat="48.03808" lon="-4.62046">
        <ele>88.430504</ele>
        <time>2012-04-13T12:59:18Z</time>
      </trkpt>
      <trkpt lat="48.03795" lon="-4.62066">
        <ele>87.320076</ele>
        <time>2012-04-13T12:59:58Z</time>
      </trkpt>
      <trkpt lat="48.03777" lon="-4.62066">
        <ele>87.36421</ele>
        <time>2012-04-13T13:00:59Z</time>
      </trkpt>
      <trkpt lat="48.03765" lon="-4.62086">
        <ele>89.74687</ele>
        <time>2012-04-13T13:02:45Z</time>
      </trkpt>
      <trkpt lat="48.03758" lon="-4.62113">
        <ele>91.26159</ele>
        <time>2012-04-13T13:03:06Z</time>
      </trkpt>
      <trkpt lat="48.03753" lon="-4.62139">
        <ele>90.504875</ele>
        <time>2012-04-13T13:03:31Z</time>
      </trkpt>
      <trkpt lat="48.03744" lon="-4.62163">
        <ele>92.06811</ele>
        <time>2012-04-13T13:03:53Z</time>
      </trkpt>
      <trkpt lat="48.03728" lon="-4.62176">
        <ele>96.623146</ele>
        <time>2012-04-13T13:04:22Z</time>
      </trkpt>
      <trkpt lat="48.03709" lon="-4.62177">
        <ele>100.29368</ele>
        <time>2012-04-13T13:04:47Z</time>
      </trkpt>
      <trkpt lat="48.03691" lon="-4.62172">
        <ele>102.7401</ele>
        <time>2012-04-13T13:05:10Z</time>
      </trkpt>
      <trkpt lat="48.03673" lon="-4.62172">
        <ele>105.841736</ele>
        <time>2012-04-13T13:05:30Z</time>
      </trkpt>
      <trkpt lat="48.03655" lon="-4.62168">
        <ele>107.16027</ele>
        <time>2012-04-13T13:05:51Z</time>
      </trkpt>
      <trkpt lat="48.03637" lon="-4.6216">
        <ele>107.97497</ele>
        <time>2012-04-13T13:06:08Z</time>
      </trkpt>
      <trkpt lat="48.03619" lon="-4.62152">
        <ele>108.9414</ele>
        <time>2012-04-13T13:06:26Z</time>
      </trkpt>
      <trkpt lat="48.03601" lon="-4.62145">
        <ele>109.62491</ele>
        <time>2012-04-13T13:06:44Z</time>
      </trkpt>
      <trkpt lat="48.03582" lon="-4.6214">
        <ele>109.654465</ele>
        <time>2012-04-13T13:07:02Z</time>
      </trkpt>
      <trkpt lat="48.03565" lon="-4.62131">
        <ele>110.24212</ele>
        <time>2012-04-13T13:07:16Z</time>
      </trkpt>
      <trkpt lat="48.03547" lon="-4.62123">
        <ele>110.014626</ele>
        <time>2012-04-13T13:07:40Z</time>
      </trkpt>
      <trkpt lat="48.03528" lon="-4.62119">
        <ele>110.167076</ele>
        <time>2012-04-13T13:07:58Z</time>
      </trkpt>
      <trkpt lat="48.03514" lon="-4.62137">
        <ele>108.57731</ele>
        <time>2012-04-13T13:08:27Z</time>
      </trkpt>
      <trkpt lat="48.03508" lon="-4.62163">
        <ele>108.01734</ele>
        <time>2012-04-13T13:08:44Z</time>
      </trkpt>
      <trkpt lat="48.03503" lon="-4.62189">
        <ele>107.941376</ele>
        <time>2012-04-13T13:09:01Z</time>
      </trkpt>
      <trkpt lat="48.03502" lon="-4.62217">
        <ele>108.56246</ele>
        <time>2012-04-13T13:09:16Z</time>
      </trkpt>
      <trkpt lat="48.03503" lon="-4.62246">
        <ele>108.030136</ele>
        <time>2012-04-13T13:09:33Z</time>
      </trkpt>
      <trkpt lat="48.03504" lon="-4.62272">
        <ele>108.22147</ele>
        <time>2012-04-13T13:09:49Z</time>
      </trkpt>
      <trkpt lat="48.03502" lon="-4.623">
        <ele>108.837234</ele>
        <time>2012-04-13T13:10:04Z</time>
      </trkpt>
      <trkpt lat="48.03499" lon="-4.62327">
        <ele>109.67828</ele>
        <time>2012-04-13T13:10:19Z</time>
      </trkpt>
      <trkpt lat="48.03495" lon="-4.62354">
        <ele>109.6553</ele>
        <time>2012-04-13T13:10:33Z</time>
      </trkpt>
      <trkpt lat="48.03494" lon="-4.62382">
        <ele>109.07016</ele>
        <time>2012-04-13T13:10:48Z</time>
      </trkpt>
      <trkpt lat="48.0349" lon="-4.6241">
        <ele>108.47351</ele>
        <time>2012-04-13T13:11:03Z</time>
      </trkpt>
      <trkpt lat="48.03489" lon="-4.62437">
        <ele>108.411644</ele>
        <time>2012-04-13T13:11:17Z</time>
      </trkpt>
      <trkpt lat="48.035" lon="-4.62459">
        <ele>109.24159</ele>
        <time>2012-04-13T13:11:32Z</time>
      </trkpt>
      <trkpt lat="48.03516" lon="-4.62471">
        <ele>108.617195</ele>
        <time>2012-04-13T13:11:50Z</time>
      </trkpt>
      <trkpt lat="48.03527" lon="-4.62492">
        <ele>107.893234</ele>
        <time>2012-04-13T13:12:05Z</time>
      </trkpt>
      <trkpt lat="48.0353" lon="-4.62519">
        <ele>108.168335</ele>
        <time>2012-04-13T13:12:25Z</time>
      </trkpt>
      <trkpt lat="48.03521" lon="-4.62544">
        <ele>107.86024</ele>
        <time>2012-04-13T13:12:40Z</time>
      </trkpt>
      <trkpt lat="48.03513" lon="-4.6257">
        <ele>107.50985</ele>
        <time>2012-04-13T13:12:56Z</time>
      </trkpt>
      <trkpt lat="48.03503" lon="-4.62593">
        <ele>107.00258</ele>
        <time>2012-04-13T13:13:11Z</time>
      </trkpt>
      <trkpt lat="48.03496" lon="-4.62619">
        <ele>107.4107</ele>
        <time>2012-04-13T13:13:26Z</time>
      </trkpt>
      <trkpt lat="48.03492" lon="-4.62647">
        <ele>108.71435</ele>
        <time>2012-04-13T13:13:43Z</time>
      </trkpt>
      <trkpt lat="48.03487" lon="-4.62672">
        <ele>108.25285</ele>
        <time>2012-04-13T13:13:58Z</time>
      </trkpt>
      <trkpt lat="48.03487" lon="-4.62701">
        <ele>106.90803</ele>
        <time>2012-04-13T13:14:12Z</time>
      </trkpt>
      <trkpt lat="48.03489" lon="-4.62728">
        <ele>106.83689</ele>
        <time>2012-04-13T13:14:27Z</time>
      </trkpt>
      <trkpt lat="48.03489" lon="-4.62756">
        <ele>107.12645</ele>
        <time>2012-04-13T13:14:42Z</time>
      </trkpt>
      <trkpt lat="48.03478" lon="-4.62778">
        <ele>105.02982</ele>
        <time>2012-04-13T13:16:45Z</time>
      </trkpt>
      <trkpt lat="48.0346" lon="-4.62774">
        <ele>104.85468</ele>
        <time>2012-04-13T13:17:05Z</time>
      </trkpt>
      <trkpt lat="48.03444" lon="-4.6276">
        <ele>104.49293</ele>
        <time>2012-04-13T13:17:26Z</time>
      </trkpt>
      <trkpt lat="48.03426" lon="-4.6275">
        <ele>103.37016</ele>
        <time>2012-04-13T13:17:43Z</time>
      </trkpt>
      <trkpt lat="48.0341" lon="-4.6274">
        <ele>103.01333</ele>
        <time>2012-04-13T13:17:59Z</time>
      </trkpt>
      <trkpt lat="48.03393" lon="-4.62726">
        <ele>101.30745</ele>
        <time>2012-04-13T13:18:16Z</time>
      </trkpt>
      <trkpt lat="48.03375" lon="-4.62715">
        <ele>99.73847</ele>
        <time>2012-04-13T13:18:32Z</time>
      </trkpt>
      <trkpt lat="48.03357" lon="-4.62714">
        <ele>98.495186</ele>
        <time>2012-04-13T13:18:46Z</time>
      </trkpt>
      <trkpt lat="48.03338" lon="-4.62714">
        <ele>98.565865</ele>
        <time>2012-04-13T13:19:01Z</time>
      </trkpt>
      <trkpt lat="48.0332" lon="-4.62713">
        <ele>98.119225</ele>
        <time>2012-04-13T13:19:17Z</time>
      </trkpt>
      <trkpt lat="48.03301" lon="-4.62712">
        <ele>98.61152</ele>
        <time>2012-04-13T13:19:32Z</time>
      </trkpt>
      <trkpt lat="48.03283" lon="-4.62713">
        <ele>96.47094</ele>
        <time>2012-04-13T13:19:47Z</time>
      </trkpt>
      <trkpt lat="48.03264" lon="-4.62714">
        <ele>94.07655</ele>
        <time>2012-04-13T13:20:02Z</time>
      </trkpt>
      <trkpt lat="48.03247" lon="-4.62721">
        <ele>92.035774</ele>
        <time>2012-04-13T13:20:17Z</time>
      </trkpt>
      <trkpt lat="48.03229" lon="-4.62725">
        <ele>89.57615</ele>
        <time>2012-04-13T13:20:33Z</time>
      </trkpt>
      <trkpt lat="48.0321" lon="-4.62726">
        <ele>88.32559</ele>
        <time>2012-04-13T13:20:47Z</time>
      </trkpt>
      <trkpt lat="48.03194" lon="-4.62737">
        <ele>87.14259</ele>
        <time>2012-04-13T13:21:18Z</time>
      </trkpt>
      <trkpt lat="48.03183" lon="-4.6276">
        <ele>85.29824</ele>
        <time>2012-04-13T13:21:36Z</time>
      </trkpt>
      <trkpt lat="48.03173" lon="-4.62784">
        <ele>83.27137</ele>
        <time>2012-04-13T13:21:54Z</time>
      </trkpt>
      <trkpt lat="48.03155" lon="-4.6279">
        <ele>81.76673</ele>
        <time>2012-04-13T13:22:13Z</time>
      </trkpt>
      <trkpt lat="48.03137" lon="-4.62798">
        <ele>79.48041</ele>
        <time>2012-04-13T13:22:57Z</time>
      </trkpt>
      <trkpt lat="48.03128" lon="-4.62823">
        <ele>77.774635</ele>
        <time>2012-04-13T13:23:14Z</time>
      </trkpt>
      <trkpt lat="48.03115" lon="-4.62843">
        <ele>78.40939</ele>
        <time>2012-04-13T13:23:30Z</time>
      </trkpt>
      <trkpt lat="48.03099" lon="-4.62858">
        <ele>77.65344</ele>
        <time>2012-04-13T13:23:46Z</time>
      </trkpt>
      <trkpt lat="48.03116" lon="-4.62844">
        <ele>72.67087</ele>
        <time>2012-04-13T13:25:25Z</time>
      </trkpt>
      <trkpt lat="48.03127" lon="-4.62823">
        <ele>74.13668</ele>
        <time>2012-04-13T13:25:41Z</time>
      </trkpt>
      <trkpt lat="48.03137" lon="-4.628">
        <ele>76.37844</ele>
        <time>2012-04-13T13:25:58Z</time>
      </trkpt>
      <trkpt lat="48.03155" lon="-4.62792">
        <ele>77.374306</ele>
        <time>2012-04-13T13:26:16Z</time>
      </trkpt>
      <trkpt lat="48.03174" lon="-4.62794">
        <ele>78.654785</ele>
        <time>2012-04-13T13:26:32Z</time>
      </trkpt>
      <trkpt lat="48.03188" lon="-4.62813">
        <ele>80.0325</ele>
        <time>2012-04-13T13:26:49Z</time>
      </trkpt>
      <trkpt lat="48.03188" lon="-4.6284">
        <ele>81.50182</ele>
        <time>2012-04-13T13:27:04Z</time>
      </trkpt>
      <trkpt lat="48.03194" lon="-4.62866">
        <ele>81.48321</ele>
        <time>2012-04-13T13:27:19Z</time>
      </trkpt>
      <trkpt lat="48.03204" lon="-4.6289">
        <ele>83.31004</ele>
        <time>2012-04-13T13:27:36Z</time>
      </trkpt>
      <trkpt lat="48.03216" lon="-4.6291">
        <ele>84.91199</ele>
        <time>2012-04-13T13:27:50Z</time>
      </trkpt>
      <trkpt lat="48.03233" lon="-4.62922">
        <ele>87.68448</ele>
        <time>2012-04-13T13:28:15Z</time>
      </trkpt>
      <trkpt lat="48.03235" lon="-4.6295">
        <ele>88.09455</ele>
        <time>2012-04-13T13:28:30Z</time>
      </trkpt>
      <trkpt lat="48.03231" lon="-4.62978">
        <ele>88.75422</ele>
        <time>2012-04-13T13:28:45Z</time>
      </trkpt>
      <trkpt lat="48.03237" lon="-4.63003">
        <ele>88.420494</ele>
        <time>2012-04-13T13:28:59Z</time>
      </trkpt>
      <trkpt lat="48.03248" lon="-4.63025">
        <ele>87.7964</ele>
        <time>2012-04-13T13:29:12Z</time>
      </trkpt>
      <trkpt lat="48.03257" lon="-4.6305">
        <ele>88.499825</ele>
        <time>2012-04-13T13:29:25Z</time>
      </trkpt>
      <trkpt lat="48.03263" lon="-4.63076">
        <ele>88.71942</ele>
        <time>2012-04-13T13:29:38Z</time>
      </trkpt>
      <trkpt lat="48.03268" lon="-4.63103">
        <ele>88.482765</ele>
        <time>2012-04-13T13:29:52Z</time>
      </trkpt>
      <trkpt lat="48.03268" lon="-4.63131">
        <ele>87.243484</ele>
        <time>2012-04-13T13:30:10Z</time>
      </trkpt>
      <trkpt lat="48.03269" lon="-4.63158">
        <ele>85.4243</ele>
        <time>2012-04-13T13:30:26Z</time>
      </trkpt>
      <trkpt lat="48.03269" lon="-4.63186">
        <ele>84.47512</ele>
        <time>2012-04-13T13:30:41Z</time>
      </trkpt>
      <trkpt lat="48.03273" lon="-4.63214">
        <ele>82.605606</ele>
        <time>2012-04-13T13:31:00Z</time>
      </trkpt>
      <trkpt lat="48.03275" lon="-4.63242">
        <ele>81.05409</ele>
        <time>2012-04-13T13:31:17Z</time>
      </trkpt>
      <trkpt lat="48.03285" lon="-4.63264">
        <ele>77.945465</ele>
        <time>2012-04-13T13:31:38Z</time>
      </trkpt>
      <trkpt lat="48.03303" lon="-4.63268">
        <ele>74.175064</ele>
        <time>2012-04-13T13:31:54Z</time>
      </trkpt>
      <trkpt lat="48.03322" lon="-4.63264">
        <ele>71.645996</ele>
        <time>2012-04-13T13:32:12Z</time>
      </trkpt>
      <trkpt lat="48.0334" lon="-4.63258">
        <ele>71.69239</ele>
        <time>2012-04-13T13:32:29Z</time>
      </trkpt>
      <trkpt lat="48.03358" lon="-4.63251">
        <ele>71.74916</ele>
        <time>2012-04-13T13:32:47Z</time>
      </trkpt>
      <trkpt lat="48.03376" lon="-4.63246">
        <ele>72.21391</ele>
        <time>2012-04-13T13:33:04Z</time>
      </trkpt>
      <trkpt lat="48.03394" lon="-4.63246">
        <ele>71.675125</ele>
        <time>2012-04-13T13:33:23Z</time>
      </trkpt>
      <trkpt lat="48.03413" lon="-4.63244">
        <ele>72.10349</ele>
        <time>2012-04-13T13:33:43Z</time>
      </trkpt>
      <trkpt lat="48.03431" lon="-4.63236">
        <ele>71.63401</ele>
        <time>2012-04-13T13:33:56Z</time>
      </trkpt>
      <trkpt lat="48.03452" lon="-4.63231">
        <ele>69.40159</ele>
        <time>2012-04-13T13:34:33Z</time>
      </trkpt>
      <trkpt lat="48.03469" lon="-4.6324">
        <ele>66.031555</ele>
        <time>2012-04-13T13:34:57Z</time>
      </trkpt>
      <trkpt lat="48.03488" lon="-4.63246">
        <ele>66.55174</ele>
        <time>2012-04-13T13:35:19Z</time>
      </trkpt>
      <trkpt lat="48.03506" lon="-4.63249">
        <ele>65.0853</ele>
        <time>2012-04-13T13:35:32Z</time>
      </trkpt>
      <trkpt lat="48.03524" lon="-4.63253">
        <ele>65.59029</ele>
        <time>2012-04-13T13:35:47Z</time>
      </trkpt>
      <trkpt lat="48.03542" lon="-4.63259">
        <ele>66.33557</ele>
        <time>2012-04-13T13:36:03Z</time>
      </trkpt>
      <trkpt lat="48.03559" lon="-4.6327">
        <ele>66.33565</ele>
        <time>2012-04-13T13:36:20Z</time>
      </trkpt>
      <trkpt lat="48.03575" lon="-4.63281">
        <ele>66.370705</ele>
        <time>2012-04-13T13:36:37Z</time>
      </trkpt>
      <trkpt lat="48.03591" lon="-4.63297">
        <ele>66.47407</ele>
        <time>2012-04-13T13:36:54Z</time>
      </trkpt>
      <trkpt lat="48.03607" lon="-4.63313">
        <ele>67.32798</ele>
        <time>2012-04-13T13:37:10Z</time>
      </trkpt>
      <trkpt lat="48.03622" lon="-4.6333">
        <ele>65.350266</ele>
        <time>2012-04-13T13:37:25Z</time>
      </trkpt>
      <trkpt lat="48.03636" lon="-4.63348">
        <ele>64.96593</ele>
        <time>2012-04-13T13:37:39Z</time>
      </trkpt>
      <trkpt lat="48.03649" lon="-4.63368">
        <ele>66.11611</ele>
        <time>2012-04-13T13:37:54Z</time>
      </trkpt>
      <trkpt lat="48.03665" lon="-4.63381">
        <ele>67.740265</ele>
        <time>2012-04-13T13:38:10Z</time>
      </trkpt>
      <trkpt lat="48.03681" lon="-4.63393">
        <ele>65.26174</ele>
        <time>2012-04-13T13:38:25Z</time>
      </trkpt>
      <trkpt lat="48.03697" lon="-4.63409">
        <ele>63.16106</ele>
        <time>2012-04-13T13:38:42Z</time>
      </trkpt>
      <trkpt lat="48.03714" lon="-4.6342">
        <ele>62.733368</ele>
        <time>2012-04-13T13:38:59Z</time>
      </trkpt>
      <trkpt lat="48.03733" lon="-4.63421">
        <ele>62.066723</ele>
        <time>2012-04-13T13:39:15Z</time>
      </trkpt>
      <trkpt lat="48.03752" lon="-4.63414">
        <ele>64.71782</ele>
        <time>2012-04-13T13:39:34Z</time>
      </trkpt>
      <trkpt lat="48.03765" lon="-4.63396">
        <ele>64.26824</ele>
        <time>2012-04-13T13:39:49Z</time>
      </trkpt>
      <trkpt lat="48.0378" lon="-4.63378">
        <ele>62.892582</ele>
        <time>2012-04-13T13:40:03Z</time>
      </trkpt>
      <trkpt lat="48.03792" lon="-4.63358">
        <ele>61.738415</ele>
        <time>2012-04-13T13:40:22Z</time>
      </trkpt>
      <trkpt lat="48.03806" lon="-4.63339">
        <ele>62.256207</ele>
        <time>2012-04-13T13:40:39Z</time>
      </trkpt>
      <trkpt lat="48.03817" lon="-4.63316">
        <ele>62.542126</ele>
        <time>2012-04-13T13:40:53Z</time>
      </trkpt>
      <trkpt lat="48.03825" lon="-4.63292">
        <ele>62.444893</ele>
        <time>2012-04-13T13:41:10Z</time>
      </trkpt>
      <trkpt lat="48.03835" lon="-4.63268">
        <ele>65.07356</ele>
        <time>2012-04-13T13:41:26Z</time>
      </trkpt>
      <trkpt lat="48.03844" lon="-4.63245">
        <ele>66.898506</ele>
        <time>2012-04-13T13:41:44Z</time>
      </trkpt>
      <trkpt lat="48.03852" lon="-4.6322">
        <ele>67.14699</ele>
        <time>2012-04-13T13:41:58Z</time>
      </trkpt>
      <trkpt lat="48.0386" lon="-4.63195">
        <ele>65.31589</ele>
        <time>2012-04-13T13:42:13Z</time>
      </trkpt>
      <trkpt lat="48.03867" lon="-4.6317">
        <ele>65.38793</ele>
        <time>2012-04-13T13:42:29Z</time>
      </trkpt>
      <trkpt lat="48.03872" lon="-4.63144">
        <ele>63.9382</ele>
        <time>2012-04-13T13:42:45Z</time>
      </trkpt>
      <trkpt lat="48.03876" lon="-4.63117">
        <ele>64.27617</ele>
        <time>2012-04-13T13:43:02Z</time>
      </trkpt>
      <trkpt lat="48.03879" lon="-4.6309">
        <ele>64.803444</ele>
        <time>2012-04-13T13:43:18Z</time>
      </trkpt>
      <trkpt lat="48.0388" lon="-4.63063">
        <ele>65.62259</ele>
        <time>2012-04-13T13:43:35Z</time>
      </trkpt>
      <trkpt lat="48.03887" lon="-4.63037">
        <ele>65.957146</ele>
        <time>2012-04-13T13:43:52Z</time>
      </trkpt>
      <trkpt lat="48.03885" lon="-4.63009">
        <ele>65.74773</ele>
        <time>2012-04-13T13:44:08Z</time>
      </trkpt>
      <trkpt lat="48.03887" lon="-4.62982">
        <ele>65.807045</ele>
        <time>2012-04-13T13:44:25Z</time>
      </trkpt>
      <trkpt lat="48.03883" lon="-4.62955">
        <ele>65.01279</ele>
        <time>2012-04-13T13:44:39Z</time>
      </trkpt>
      <trkpt lat="48.03866" lon="-4.62947">
        <ele>67.68578</ele>
        <time>2012-04-13T13:44:54Z</time>
      </trkpt>
      <trkpt lat="48.03857" lon="-4.62922">
        <ele>70.82761</ele>
        <time>2012-04-13T13:45:33Z</time>
      </trkpt>
      <trkpt lat="48.03849" lon="-4.62898">
        <ele>71.8162</ele>
        <time>2012-04-13T13:45:53Z</time>
      </trkpt>
      <trkpt lat="48.03852" lon="-4.6287">
        <ele>74.14519</ele>
        <time>2012-04-13T13:46:09Z</time>
      </trkpt>
      <trkpt lat="48.03855" lon="-4.62843">
        <ele>76.70296</ele>
        <time>2012-04-13T13:46:26Z</time>
      </trkpt>
      <trkpt lat="48.03847" lon="-4.62817">
        <ele>75.8461</ele>
        <time>2012-04-13T13:46:43Z</time>
      </trkpt>
      <trkpt lat="48.03841" lon="-4.62791">
        <ele>71.60674</ele>
        <time>2012-04-13T13:47:08Z</time>
      </trkpt>
      <trkpt lat="48.0385" lon="-4.62766">
        <ele>69.633385</ele>
        <time>2012-04-13T13:47:33Z</time>
      </trkpt>
      <trkpt lat="48.03854" lon="-4.62738">
        <ele>68.57522</ele>
        <time>2012-04-13T13:47:50Z</time>
      </trkpt>
      <trkpt lat="48.03858" lon="-4.62711">
        <ele>68.20195</ele>
        <time>2012-04-13T13:48:05Z</time>
      </trkpt>
      <trkpt lat="48.03864" lon="-4.62686">
        <ele>67.64026</ele>
        <time>2012-04-13T13:48:27Z</time>
      </trkpt>
      <trkpt lat="48.0388" lon="-4.62676">
        <ele>70.28908</ele>
        <time>2012-04-13T13:48:48Z</time>
      </trkpt>
      <trkpt lat="48.03899" lon="-4.62678">
        <ele>70.55622</ele>
        <time>2012-04-13T13:49:09Z</time>
      </trkpt>
      <trkpt lat="48.03918" lon="-4.62679">
        <ele>69.814064</ele>
        <time>2012-04-13T13:49:26Z</time>
      </trkpt>
      <trkpt lat="48.03937" lon="-4.62682">
        <ele>70.8559</ele>
        <time>2012-04-13T13:49:41Z</time>
      </trkpt>
      <trkpt lat="48.03955" lon="-4.62685">
        <ele>68.94672</ele>
        <time>2012-04-13T13:49:57Z</time>
      </trkpt>
      <trkpt lat="48.03973" lon="-4.62685">
        <ele>66.27082</ele>
        <time>2012-04-13T13:50:13Z</time>
      </trkpt>
      <trkpt lat="48.03992" lon="-4.62683">
        <ele>63.681553</ele>
        <time>2012-04-13T13:50:26Z</time>
      </trkpt>
      <trkpt lat="48.04011" lon="-4.62684">
        <ele>64.99317</ele>
        <time>2012-04-13T13:50:43Z</time>
      </trkpt>
      <trkpt lat="48.04029" lon="-4.62686">
        <ele>66.98418</ele>
        <time>2012-04-13T13:50:57Z</time>
      </trkpt>
      <trkpt lat="48.04048" lon="-4.62692">
        <ele>67.86969</ele>
        <time>2012-04-13T13:51:13Z</time>
      </trkpt>
      <trkpt lat="48.0406" lon="-4.62671">
        <ele>69.22424</ele>
        <time>2012-04-13T13:51:32Z</time>
      </trkpt>
      <trkpt lat="48.04061" lon="-4.62643">
        <ele>68.80142</ele>
        <time>2012-04-13T13:51:48Z</time>
      </trkpt>
      <trkpt lat="48.04064" lon="-4.62617">
        <ele>67.904434</ele>
        <time>2012-04-13T13:52:05Z</time>
      </trkpt>
      <trkpt lat="48.04068" lon="-4.6259">
        <ele>67.66955</ele>
        <time>2012-04-13T13:52:24Z</time>
      </trkpt>
      <trkpt lat="48.04077" lon="-4.62566">
        <ele>66.754364</ele>
        <time>2012-04-13T13:52:43Z</time>
      </trkpt>
      <trkpt lat="48.04085" lon="-4.62541">
        <ele>67.35209</ele>
        <time>2012-04-13T13:53:03Z</time>
      </trkpt>
      <trkpt lat="48.04092" lon="-4.62516">
        <ele>68.9724</ele>
        <time>2012-04-13T13:53:22Z</time>
      </trkpt>
      <trkpt lat="48.041" lon="-4.62491">
        <ele>71.146614</ele>
        <time>2012-04-13T13:53:43Z</time>
      </trkpt>
      <trkpt lat="48.04111" lon="-4.62469">
        <ele>75.02391</ele>
        <time>2012-04-13T13:54:03Z</time>
      </trkpt>
      <trkpt lat="48.04123" lon="-4.62448">
        <ele>76.84167</ele>
        <time>2012-04-13T13:54:25Z</time>
      </trkpt>
      <trkpt lat="48.04135" lon="-4.62427">
        <ele>79.50276</ele>
        <time>2012-04-13T13:54:44Z</time>
      </trkpt>
      <trkpt lat="48.04145" lon="-4.62403">
        <ele>81.82775</ele>
        <time>2012-04-13T13:55:03Z</time>
      </trkpt>
      <trkpt lat="48.04155" lon="-4.62381">
        <ele>83.9725</ele>
        <time>2012-04-13T13:55:22Z</time>
      </trkpt>
      <trkpt lat="48.04167" lon="-4.6236">
        <ele>86.122765</ele>
        <time>2012-04-13T13:55:40Z</time>
      </trkpt>
      <trkpt lat="48.04181" lon="-4.62343">
        <ele>87.096146</ele>
        <time>2012-04-13T13:55:58Z</time>
      </trkpt>
      <trkpt lat="48.04199" lon="-4.62332">
        <ele>89.060074</ele>
        <time>2012-04-13T13:56:16Z</time>
      </trkpt>
      <trkpt lat="48.04217" lon="-4.62329">
        <ele>89.502106</ele>
        <time>2012-04-13T13:56:34Z</time>
      </trkpt>
      <trkpt lat="48.04236" lon="-4.62326">
        <ele>89.99883</ele>
        <time>2012-04-13T13:56:52Z</time>
      </trkpt>
      <trkpt lat="48.04254" lon="-4.62325">
        <ele>92.6288</ele>
        <time>2012-04-13T13:57:08Z</time>
      </trkpt>
      <trkpt lat="48.04272" lon="-4.62323">
        <ele>94.837845</ele>
        <time>2012-04-13T13:57:25Z</time>
      </trkpt>
      <trkpt lat="48.0429" lon="-4.62324">
        <ele>96.56724</ele>
        <time>2012-04-13T13:57:43Z</time>
      </trkpt>
      <trkpt lat="48.04309" lon="-4.62325">
        <ele>98.27722</ele>
        <time>2012-04-13T13:58:00Z</time>
      </trkpt>
      <trkpt lat="48.04327" lon="-4.62329">
        <ele>99.50626</ele>
        <time>2012-04-13T13:58:17Z</time>
      </trkpt>
      <trkpt lat="48.04346" lon="-4.62331">
        <ele>98.31015</ele>
        <time>2012-04-13T13:58:34Z</time>
      </trkpt>
      <trkpt lat="48.04364" lon="-4.62334">
        <ele>97.9498</ele>
        <time>2012-04-13T13:58:51Z</time>
      </trkpt>
      <trkpt lat="48.04382" lon="-4.62335">
        <ele>97.67749</ele>
        <time>2012-04-13T13:59:06Z</time>
      </trkpt>
      <trkpt lat="48.04401" lon="-4.62333">
        <ele>96.72613</ele>
        <time>2012-04-13T13:59:22Z</time>
      </trkpt>
      <trkpt lat="48.04416" lon="-4.62318">
        <ele>96.75278</ele>
        <time>2012-04-13T13:59:47Z</time>
      </trkpt>
      <trkpt lat="48.04417" lon="-4.6229">
        <ele>95.71793</ele>
        <time>2012-04-13T14:00:07Z</time>
      </trkpt>
      <trkpt lat="48.0442" lon="-4.62263">
        <ele>92.228455</ele>
        <time>2012-04-13T14:00:26Z</time>
      </trkpt>
      <trkpt lat="48.04421" lon="-4.62235">
        <ele>89.72343</ele>
        <time>2012-04-13T14:00:47Z</time>
      </trkpt>
      <trkpt lat="48.04417" lon="-4.62207">
        <ele>88.92799</ele>
        <time>2012-04-13T14:01:04Z</time>
      </trkpt>
      <trkpt lat="48.04412" lon="-4.62181">
        <ele>85.53831</ele>
        <time>2012-04-13T14:01:22Z</time>
      </trkpt>
      <trkpt lat="48.04405" lon="-4.62155">
        <ele>83.378174</ele>
        <time>2012-04-13T14:01:40Z</time>
      </trkpt>
      <trkpt lat="48.04401" lon="-4.62129">
        <ele>84.3871</ele>
        <time>2012-04-13T14:01:58Z</time>
      </trkpt>
      <trkpt lat="48.0439" lon="-4.62105">
        <ele>83.93197</ele>
        <time>2012-04-13T14:02:14Z</time>
      </trkpt>
      <trkpt lat="48.0438" lon="-4.62081">
        <ele>82.6237</ele>
        <time>2012-04-13T14:02:31Z</time>
      </trkpt>
      <trkpt lat="48.04366" lon="-4.62065">
        <ele>79.76913</ele>
        <time>2012-04-13T14:02:47Z</time>
      </trkpt>
      <trkpt lat="48.04382" lon="-4.62051">
        <ele>78.91252</ele>
        <time>2012-04-13T14:03:40Z</time>
      </trkpt>
      <trkpt lat="48.04401" lon="-4.62049">
        <ele>80.626854</ele>
        <time>2012-04-13T14:04:07Z</time>
      </trkpt>
      <trkpt lat="48.04419" lon="-4.62045">
        <ele>83.85718</ele>
        <time>2012-04-13T14:04:21Z</time>
      </trkpt>
      <trkpt lat="48.04436" lon="-4.62035">
        <ele>78.83112</ele>
        <time>2012-04-13T14:04:43Z</time>
      </trkpt>
      <trkpt lat="48.04453" lon="-4.62026">
        <ele>76.79197</ele>
        <time>2012-04-13T14:05:04Z</time>
      </trkpt>
      <trkpt lat="48.04472" lon="-4.62022">
        <ele>76.5336</ele>
        <time>2012-04-13T14:05:20Z</time>
      </trkpt>
      <trkpt lat="48.0449" lon="-4.62017">
        <ele>77.69945</ele>
        <time>2012-04-13T14:05:36Z</time>
      </trkpt>
      <trkpt lat="48.04508" lon="-4.62011">
        <ele>81.07442</ele>
        <time>2012-04-13T14:05:47Z</time>
      </trkpt>
      <trkpt lat="48.04527" lon="-4.62004">
        <ele>82.778465</ele>
        <time>2012-04-13T14:05:59Z</time>
      </trkpt>
      <trkpt lat="48.04545" lon="-4.62001">
        <ele>82.05927</ele>
        <time>2012-04-13T14:06:14Z</time>
      </trkpt>
      <trkpt lat="48.04564" lon="-4.61999">
        <ele>81.99995</ele>
        <time>2012-04-13T14:06:51Z</time>
      </trkpt>
      <trkpt lat="48.04583" lon="-4.62008">
        <ele>82.90162</ele>
        <time>2012-04-13T14:07:04Z</time>
      </trkpt>
      <trkpt lat="48.04601" lon="-4.62016">
        <ele>81.69163</ele>
        <time>2012-04-13T14:07:18Z</time>
      </trkpt>
      <trkpt lat="48.04614" lon="-4.62036">
        <ele>79.193634</ele>
        <time>2012-04-13T14:07:32Z</time>
      </trkpt>
      <trkpt lat="48.0462" lon="-4.62062">
        <ele>78.86849</ele>
        <time>2012-04-13T14:07:50Z</time>
      </trkpt>
      <trkpt lat="48.0463" lon="-4.62087">
        <ele>79.12358</ele>
        <time>2012-04-13T14:08:04Z</time>
      </trkpt>
      <trkpt lat="48.04645" lon="-4.62102">
        <ele>80.43782</ele>
        <time>2012-04-13T14:08:17Z</time>
      </trkpt>
      <trkpt lat="48.04664" lon="-4.62104">
        <ele>82.575226</ele>
        <time>2012-04-13T14:08:30Z</time>
      </trkpt>
      <trkpt lat="48.04682" lon="-4.6211">
        <ele>83.12361</ele>
        <time>2012-04-13T14:08:44Z</time>
      </trkpt>
      <trkpt lat="48.04699" lon="-4.6212">
        <ele>83.185745</ele>
        <time>2012-04-13T14:08:58Z</time>
      </trkpt>
      <trkpt lat="48.04717" lon="-4.62128">
        <ele>83.906</ele>
        <time>2012-04-13T14:09:12Z</time>
      </trkpt>
      <trkpt lat="48.04736" lon="-4.62122">
        <ele>85.5035</ele>
        <time>2012-04-13T14:09:27Z</time>
      </trkpt>
      <trkpt lat="48.0474" lon="-4.62096">
        <ele>83.29488</ele>
        <time>2012-04-13T14:10:20Z</time>
      </trkpt>
      <trkpt lat="48.0474" lon="-4.62069">
        <ele>82.766945</ele>
        <time>2012-04-13T14:10:39Z</time>
      </trkpt>
      <trkpt lat="48.0474" lon="-4.62042">
        <ele>82.20507</ele>
        <time>2012-04-13T14:10:55Z</time>
      </trkpt>
      <trkpt lat="48.04742" lon="-4.62015">
        <ele>82.89568</ele>
        <time>2012-04-13T14:11:11Z</time>
      </trkpt>
      <trkpt lat="48.04741" lon="-4.61986">
        <ele>82.0682</ele>
        <time>2012-04-13T14:11:27Z</time>
      </trkpt>
      <trkpt lat="48.04742" lon="-4.61959">
        <ele>79.91916</ele>
        <time>2012-04-13T14:11:42Z</time>
      </trkpt>
      <trkpt lat="48.04743" lon="-4.61932">
        <ele>79.45187</ele>
        <time>2012-04-13T14:11:57Z</time>
      </trkpt>
      <trkpt lat="48.04743" lon="-4.61903">
        <ele>76.693665</ele>
        <time>2012-04-13T14:12:12Z</time>
      </trkpt>
      <trkpt lat="48.0475" lon="-4.61877">
        <ele>76.31293</ele>
        <time>2012-04-13T14:12:28Z</time>
      </trkpt>
      <trkpt lat="48.04758" lon="-4.61852">
        <ele>76.172516</ele>
        <time>2012-04-13T14:12:44Z</time>
      </trkpt>
      <trkpt lat="48.04763" lon="-4.61826">
        <ele>75.75317</ele>
        <time>2012-04-13T14:13:00Z</time>
      </trkpt>
      <trkpt lat="48.04768" lon="-4.61799">
        <ele>75.80396</ele>
        <time>2012-04-13T14:13:22Z</time>
      </trkpt>
      <trkpt lat="48.04771" lon="-4.61772">
        <ele>76.09444</ele>
        <time>2012-04-13T14:13:38Z</time>
      </trkpt>
      <trkpt lat="48.04775" lon="-4.61746">
        <ele>76.85888</ele>
        <time>2012-04-13T14:13:57Z</time>
      </trkpt>
    </trkseg>
  </trk>
</gpx>